createdAt,value
2017-07-11T00:00:19.253Z,16.90
2017-07-11T00:02:48.476Z,16.90
2017-07-11T00:05:16.956Z,16.90
2017-07-11T00:07:45.374Z,16.90
2017-07-11T00:10:13.862Z,16.90
2017-07-11T00:12:43.056Z,16.90
2017-07-11T00:15:11.505Z,16.90
2017-07-11T00:17:40.372Z,16.90
2017-07-11T00:20:08.809Z,16.90
2017-07-11T00:22:37.321Z,16.90
2017-07-11T00:25:06.033Z,16.80
2017-07-11T00:27:34.472Z,16.80
2017-07-11T00:30:02.910Z,16.80
2017-07-11T00:32:32.052Z,16.80
2017-07-11T00:35:00.490Z,16.70
2017-07-11T00:37:28.937Z,16.60
2017-07-11T00:39:57.741Z,16.60
2017-07-11T00:42:26.226Z,16.70
2017-07-11T00:44:54.707Z,16.70
2017-07-11T00:47:23.145Z,16.50
2017-07-11T00:49:51.580Z,16.60
2017-07-11T00:52:20.082Z,16.60
2017-07-11T00:54:50.103Z,16.60
2017-07-11T00:57:18.556Z,16.60
2017-07-11T00:59:47.000Z,16.60
2017-07-11T01:02:15.953Z,16.70
2017-07-11T01:04:44.434Z,16.60
2017-07-11T01:07:13.696Z,16.60
2017-07-11T01:09:43.261Z,16.60
2017-07-11T01:12:11.704Z,16.60
2017-07-11T01:14:40.538Z,16.60
2017-07-11T01:17:09.010Z,16.60
2017-07-11T01:19:37.459Z,16.70
2017-07-11T01:22:06.279Z,16.70
2017-07-11T01:24:34.751Z,16.70
2017-07-11T01:27:03.237Z,16.70
2017-07-11T01:29:32.441Z,16.60
2017-07-11T01:32:00.925Z,16.60
2017-07-11T01:34:29.363Z,16.40
2017-07-11T01:36:58.191Z,16.20
2017-07-11T01:39:27.435Z,16.20
2017-07-11T01:41:56.179Z,16.10
2017-07-11T01:44:24.643Z,16.10
2017-07-11T01:46:53.849Z,16.00
2017-07-11T01:49:22.423Z,16.00
2017-07-11T01:51:51.262Z,15.90
2017-07-11T01:54:19.704Z,16.00
2017-07-11T01:56:48.205Z,15.90
2017-07-11T01:59:16.638Z,15.90
2017-07-11T02:01:44.422Z,15.90
2017-07-11T02:04:12.939Z,15.90
2017-07-11T02:06:41.377Z,15.90
2017-07-11T02:09:09.820Z,15.90
2017-07-11T02:11:38.714Z,15.80
2017-07-11T02:14:07.674Z,15.70
2017-07-11T02:16:36.122Z,15.60
2017-07-11T02:19:05.391Z,15.50
2017-07-11T02:21:33.852Z,15.50
2017-07-11T02:24:02.276Z,15.50
2017-07-11T02:26:30.762Z,15.50
2017-07-11T02:28:59.219Z,15.40
2017-07-11T02:31:27.706Z,15.50
2017-07-11T02:33:56.546Z,15.40
2017-07-11T02:36:25.385Z,15.50
2017-07-11T02:38:54.659Z,15.50
2017-07-11T02:41:23.100Z,15.50
2017-07-11T02:43:52.326Z,15.50
2017-07-11T02:46:20.758Z,15.50
2017-07-11T02:48:49.227Z,15.50
2017-07-11T02:51:17.784Z,15.50
2017-07-11T02:53:46.616Z,15.40
2017-07-11T02:56:15.438Z,15.50
2017-07-11T02:58:44.703Z,15.50
2017-07-11T03:01:13.537Z,15.50
2017-07-11T03:03:41.981Z,15.50
2017-07-11T03:06:11.194Z,15.50
2017-07-11T03:08:39.665Z,15.40
2017-07-11T03:11:08.548Z,15.50
2017-07-11T03:13:38.022Z,15.50
2017-07-11T03:16:06.526Z,15.50
2017-07-11T03:18:34.972Z,15.50
2017-07-11T03:21:03.407Z,15.50
2017-07-11T03:23:31.880Z,15.50
2017-07-11T03:26:00.374Z,15.50
2017-07-11T03:28:28.819Z,15.50
2017-07-11T03:30:57.257Z,15.50
2017-07-11T03:33:25.738Z,15.60
2017-07-11T03:35:54.177Z,15.50
2017-07-11T03:38:23.387Z,15.50
2017-07-11T03:40:51.847Z,15.60
2017-07-11T03:43:21.054Z,15.50
2017-07-11T03:45:49.494Z,15.50
2017-07-11T03:48:17.970Z,15.50
2017-07-11T03:50:46.414Z,15.50
2017-07-11T03:53:14.900Z,15.60
2017-07-11T03:55:44.526Z,15.60
2017-07-11T03:58:13.361Z,15.60
2017-07-11T04:00:41.805Z,15.60
2017-07-11T04:03:10.292Z,15.60
2017-07-11T04:05:39.497Z,15.60
2017-07-11T04:08:08.696Z,15.60
2017-07-11T04:10:37.149Z,15.60
2017-07-11T04:13:05.588Z,15.70
2017-07-11T04:15:34.096Z,15.60
2017-07-11T04:18:02.541Z,15.60
2017-07-11T04:20:32.163Z,15.60
2017-07-11T04:23:01.430Z,15.50
2017-07-11T04:25:29.858Z,15.50
2017-07-11T04:27:58.369Z,15.50
2017-07-11T04:30:26.854Z,15.50
2017-07-11T04:32:55.294Z,15.50
2017-07-11T04:35:23.790Z,15.50
2017-07-11T04:37:52.219Z,15.50
2017-07-11T04:40:20.658Z,15.50
2017-07-11T04:42:49.519Z,15.60
2017-07-11T04:45:19.758Z,15.80
2017-07-11T04:47:48.412Z,15.80
2017-07-11T04:50:16.848Z,15.90
2017-07-11T04:52:45.356Z,16.00
2017-07-11T04:55:14.186Z,16.10
2017-07-11T04:57:42.632Z,16.00
2017-07-11T05:00:11.329Z,15.90
2017-07-11T05:02:39.766Z,15.80
2017-07-11T05:05:08.235Z,16.00
2017-07-11T05:07:37.406Z,16.50
2017-07-11T05:10:05.831Z,17.50
2017-07-11T05:12:34.271Z,18.30
2017-07-11T05:15:03.522Z,18.50
2017-07-11T05:17:31.948Z,18.00
2017-07-11T05:20:00.376Z,18.20
2017-07-11T05:22:28.976Z,18.80
2017-07-11T05:24:57.813Z,19.60
2017-07-11T05:27:26.629Z,20.50
2017-07-11T05:29:55.902Z,20.30
2017-07-11T05:32:24.325Z,19.80
2017-07-11T05:34:52.783Z,19.20
2017-07-11T05:37:21.261Z,19.00
2017-07-11T05:39:49.713Z,18.50
2017-07-11T05:42:18.197Z,18.10
2017-07-11T05:44:46.896Z,17.70
2017-07-11T05:47:15.324Z,17.60
2017-07-11T05:49:43.749Z,17.40
2017-07-11T05:52:12.210Z,17.40
2017-07-11T05:54:40.697Z,17.70
2017-07-11T05:57:09.140Z,18.10
2017-07-11T05:59:37.571Z,19.00
2017-07-11T06:02:06.041Z,19.70
2017-07-11T06:04:34.480Z,20.20
2017-07-11T06:07:02.965Z,20.50
2017-07-11T06:09:31.393Z,20.90
2017-07-11T06:11:59.825Z,21.20
2017-07-11T06:14:28.709Z,22.30
2017-07-11T06:16:57.537Z,21.50
2017-07-11T06:19:26.367Z,16.00
2017-07-11T06:21:54.839Z,19.90
2017-07-11T06:24:23.266Z,19.60
2017-07-11T06:26:51.702Z,19.50
2017-07-11T06:29:20.593Z,19.60
2017-07-11T06:31:49.434Z,19.90
2017-07-11T06:34:19.992Z,20.30
2017-07-11T06:36:48.440Z,20.30
2017-07-11T06:39:17.634Z,20.10
2017-07-11T06:41:46.155Z,19.90
2017-07-11T06:44:14.630Z,19.80
2017-07-11T06:46:43.052Z,19.80
2017-07-11T06:49:11.531Z,19.70
2017-07-11T06:51:39.952Z,19.80
2017-07-11T06:54:09.142Z,20.80
2017-07-11T06:56:37.643Z,22.50
2017-07-11T06:59:06.087Z,23.10
2017-07-11T07:01:34.524Z,24.00
2017-07-11T07:04:03.389Z,24.10
2017-07-11T07:06:32.580Z,24.20
2017-07-11T07:09:02.344Z,24.60
2017-07-11T07:11:30.513Z,25.50
2017-07-11T07:13:58.933Z,25.20
2017-07-11T07:16:27.365Z,23.90
2017-07-11T07:18:55.842Z,23.50
2017-07-11T07:21:24.708Z,24.30
2017-07-11T07:23:53.149Z,24.40
2017-07-11T07:26:21.660Z,25.20
2017-07-11T07:28:51.599Z,25.10
2017-07-11T07:31:20.070Z,25.10
2017-07-11T07:33:48.520Z,25.50
2017-07-11T07:36:17.526Z,25.30
2017-07-11T07:38:46.032Z,25.60
2017-07-11T07:41:14.454Z,25.60
2017-07-11T07:43:42.900Z,25.10
2017-07-11T07:46:11.399Z,25.70
2017-07-11T07:48:39.828Z,25.70
2017-07-11T07:51:09.057Z,26.30
2017-07-11T07:53:38.656Z,26.00
2017-07-11T07:56:07.553Z,25.40
2017-07-11T07:58:36.039Z,24.70
2017-07-11T08:01:04.473Z,24.10
2017-07-11T08:03:33.288Z,24.00
2017-07-11T08:06:01.777Z,25.20
2017-07-11T08:08:30.431Z,25.50
2017-07-11T08:10:58.900Z,25.70
2017-07-11T08:13:27.382Z,26.10
2017-07-11T08:15:56.217Z,26.50
2017-07-11T08:18:24.648Z,27.10
2017-07-11T08:20:53.133Z,26.80
2017-07-11T08:23:21.963Z,26.50
2017-07-11T08:25:51.476Z,26.50
2017-07-11T08:28:19.911Z,26.20
2017-07-11T08:30:48.768Z,26.50
2017-07-11T08:33:17.268Z,26.40
2017-07-11T08:35:46.126Z,26.60
2017-07-11T08:38:14.624Z,27.40
2017-07-11T08:40:43.138Z,27.40
2017-07-11T08:43:11.562Z,27.40
2017-07-11T08:45:40.007Z,26.90
2017-07-11T08:48:08.528Z,26.00
2017-07-11T08:50:37.723Z,25.20
2017-07-11T08:53:06.149Z,25.30
2017-07-11T08:55:34.664Z,25.30
2017-07-11T08:58:03.098Z,27.10
2017-07-11T09:00:31.528Z,27.50
2017-07-11T09:03:00.017Z,27.30
2017-07-11T09:05:28.438Z,23.10
2017-07-11T09:07:57.653Z,20.70
2017-07-11T09:10:26.131Z,19.50
2017-07-11T09:12:54.988Z,18.90
2017-07-11T09:15:24.587Z,18.70
2017-07-11T09:17:53.258Z,18.70
2017-07-11T09:20:21.684Z,18.90
2017-07-11T09:22:50.178Z,19.00
2017-07-11T09:25:18.614Z,20.10
2017-07-11T09:27:47.441Z,21.10
2017-07-11T09:30:15.971Z,21.90
2017-07-11T09:32:45.156Z,22.00
2017-07-11T09:35:14.385Z,22.00
2017-07-11T09:37:42.884Z,21.60
2017-07-11T09:40:11.352Z,21.30
2017-07-11T09:42:39.785Z,21.60
2017-07-11T09:45:09.073Z,21.70
2017-07-11T09:47:37.529Z,21.50
2017-07-11T09:50:05.967Z,21.50
2017-07-11T09:52:34.457Z,22.20
2017-07-11T09:55:02.891Z,24.00
2017-07-11T09:57:31.398Z,26.80
2017-07-11T10:00:00.232Z,28.50
2017-07-11T10:02:28.712Z,30.20
2017-07-11T10:04:57.602Z,30.40
2017-07-11T10:07:26.448Z,32.20
2017-07-11T10:09:54.891Z,30.50
2017-07-11T10:12:23.368Z,31.30
2017-07-11T10:14:51.886Z,31.60
2017-07-11T10:17:21.098Z,32.50
2017-07-11T10:19:49.577Z,31.70
2017-07-11T10:22:18.474Z,30.70
2017-07-11T10:24:47.681Z,29.90
2017-07-11T10:27:16.115Z,32.20
2017-07-11T10:29:44.648Z,32.60
2017-07-11T10:32:13.081Z,32.70
2017-07-11T10:34:41.929Z,33.30
2017-07-11T10:37:10.764Z,32.50
2017-07-11T10:39:39.206Z,32.50
2017-07-11T10:42:08.867Z,33.20
2017-07-11T10:44:37.721Z,33.40
2017-07-11T10:47:06.809Z,31.50
2017-07-11T10:49:35.277Z,30.70
2017-07-11T10:52:03.736Z,29.70
2017-07-11T10:54:32.175Z,29.80
2017-07-11T10:57:00.680Z,29.50
2017-07-11T10:59:29.524Z,29.30
2017-07-11T11:01:57.956Z,30.40
2017-07-11T11:04:27.211Z,29.00
2017-07-11T11:06:55.778Z,30.10
2017-07-11T11:09:24.229Z,30.80
2017-07-11T11:11:52.698Z,31.20
2017-07-11T11:14:21.580Z,31.00
2017-07-11T11:16:50.433Z,31.60
2017-07-11T11:19:18.878Z,32.60
2017-07-11T11:21:47.753Z,32.00
2017-07-11T11:24:16.209Z,32.50
2017-07-11T11:26:45.036Z,32.80
2017-07-11T11:29:13.533Z,31.10
2017-07-11T11:31:41.965Z,28.60
2017-07-11T11:34:10.808Z,27.30
2017-07-11T11:36:40.965Z,29.20
2017-07-11T11:39:09.408Z,27.20
2017-07-11T11:41:37.856Z,26.20
2017-07-11T11:44:06.350Z,25.80
2017-07-11T11:46:34.798Z,25.60
2017-07-11T11:49:04.001Z,26.60
2017-07-11T11:51:33.317Z,27.10
2017-07-11T11:54:01.750Z,27.70
2017-07-11T11:56:30.953Z,28.00
2017-07-11T11:58:59.418Z,28.20
2017-07-11T12:01:28.289Z,28.80
2017-07-11T12:03:57.262Z,27.70
2017-07-11T12:06:26.465Z,26.70
2017-07-11T12:08:54.912Z,26.60
2017-07-11T12:11:24.864Z,26.50
2017-07-11T12:13:53.299Z,26.80
2017-07-11T12:16:22.159Z,26.60
2017-07-11T12:18:50.616Z,25.90
2017-07-11T12:21:19.052Z,25.50
2017-07-11T12:23:47.578Z,26.10
2017-07-11T12:26:16.031Z,26.80
2017-07-11T12:28:45.222Z,28.30
2017-07-11T12:31:13.726Z,29.00
2017-07-11T12:33:42.933Z,30.50
2017-07-11T12:36:11.390Z,32.50
2017-07-11T12:38:40.608Z,35.60
2017-07-11T12:41:09.061Z,35.20
2017-07-11T12:43:37.560Z,34.40
2017-07-11T12:46:06.283Z,34.70
2017-07-11T12:48:35.141Z,33.10
2017-07-11T12:51:03.674Z,33.10
2017-07-11T12:53:32.521Z,33.50
2017-07-11T12:56:00.986Z,33.30
2017-07-11T12:58:29.489Z,32.80
2017-07-11T13:00:58.692Z,32.10
2017-07-11T13:03:27.564Z,34.40
2017-07-11T13:05:56.020Z,35.40
2017-07-11T13:08:24.457Z,36.20
2017-07-11T13:10:52.975Z,35.90
2017-07-11T13:13:21.423Z,33.80
2017-07-11T13:15:49.853Z,31.30
2017-07-11T13:18:19.347Z,31.60
2017-07-11T13:20:47.844Z,31.10
2017-07-11T13:23:16.272Z,29.40
2017-07-11T13:25:44.765Z,28.40
2017-07-11T13:28:13.196Z,28.90
2017-07-11T13:30:41.700Z,28.30
2017-07-11T13:33:10.614Z,28.80
2017-07-11T13:35:39.059Z,28.70
2017-07-11T13:38:07.557Z,27.80
2017-07-11T13:40:36.003Z,28.00
2017-07-11T13:43:05.219Z,28.30
2017-07-11T13:45:33.724Z,28.50
2017-07-11T13:48:02.160Z,28.40
2017-07-11T13:50:31.004Z,27.40
2017-07-11T13:53:00.254Z,26.40
2017-07-11T13:55:29.219Z,25.80
2017-07-11T13:57:57.715Z,26.00
2017-07-11T14:00:26.565Z,26.50
2017-07-11T14:02:55.015Z,26.80
2017-07-11T14:05:24.260Z,27.50
2017-07-11T14:07:52.716Z,27.50
2017-07-11T14:10:21.181Z,27.50
2017-07-11T14:12:49.641Z,27.20
2017-07-11T14:15:18.075Z,27.00
2017-07-11T14:17:46.492Z,26.90
2017-07-11T14:20:15.792Z,26.90
2017-07-11T14:22:44.257Z,27.10
2017-07-11T14:25:12.692Z,26.80
2017-07-11T14:27:41.163Z,27.10
2017-07-11T14:30:10.061Z,26.40
2017-07-11T14:32:39.268Z,26.50
2017-07-11T14:35:07.700Z,27.40
2017-07-11T14:37:36.998Z,28.00
2017-07-11T14:40:06.223Z,28.00
2017-07-11T14:42:34.653Z,28.40
2017-07-11T14:45:03.549Z,28.40
2017-07-11T14:47:31.979Z,27.80
2017-07-11T14:50:00.432Z,27.70
2017-07-11T14:52:28.910Z,27.20
2017-07-11T14:54:57.358Z,27.20
2017-07-11T14:57:26.261Z,27.10
2017-07-11T14:59:54.701Z,26.60
2017-07-11T15:02:24.785Z,25.80
2017-07-11T15:04:53.996Z,25.50
2017-07-11T15:07:22.439Z,25.70
2017-07-11T15:09:50.876Z,26.20
2017-07-11T15:12:19.319Z,26.90
2017-07-11T15:14:48.207Z,26.80
2017-07-11T15:17:17.472Z,26.20
2017-07-11T15:19:45.968Z,26.40
2017-07-11T15:22:14.419Z,26.60
2017-07-11T15:24:42.850Z,26.90
2017-07-11T15:27:11.757Z,27.50
2017-07-11T15:29:40.180Z,27.30
2017-07-11T15:32:09.015Z,28.30
2017-07-11T15:34:38.614Z,28.70
2017-07-11T15:37:07.042Z,27.50
2017-07-11T15:39:35.883Z,27.50
2017-07-11T15:42:04.364Z,28.90
2017-07-11T15:44:32.815Z,29.20
2017-07-11T15:47:01.261Z,29.90
2017-07-11T15:49:29.796Z,30.40
2017-07-11T15:51:58.990Z,30.00
2017-07-11T15:54:27.440Z,29.70
2017-07-11T15:56:55.920Z,30.00
2017-07-11T15:59:24.397Z,29.50
2017-07-11T16:01:53.298Z,28.70
2017-07-11T16:04:21.737Z,28.40
2017-07-11T16:06:50.553Z,27.60
2017-07-11T16:09:19.022Z,28.60
2017-07-11T16:11:47.459Z,29.00
2017-07-11T16:14:15.956Z,28.50
2017-07-11T16:16:44.390Z,27.70
2017-07-11T16:19:12.824Z,27.10
2017-07-11T16:21:42.075Z,26.90
2017-07-11T16:24:10.904Z,26.70
2017-07-11T16:26:39.345Z,26.60
2017-07-11T16:29:07.829Z,26.30
2017-07-11T16:31:36.721Z,25.80
2017-07-11T16:34:05.235Z,26.10
2017-07-11T16:36:33.666Z,26.20
2017-07-11T16:39:02.099Z,26.40
2017-07-11T16:41:32.160Z,26.50
2017-07-11T16:44:00.597Z,26.40
2017-07-11T16:46:29.027Z,26.50
2017-07-11T16:48:58.294Z,26.20
2017-07-11T16:51:26.753Z,26.00
2017-07-11T16:53:55.950Z,26.10
2017-07-11T16:56:24.434Z,26.40
2017-07-11T16:58:52.869Z,26.60
2017-07-11T17:01:21.303Z,26.20
2017-07-11T17:03:50.578Z,25.50
2017-07-11T17:06:19.021Z,25.40
2017-07-11T17:08:48.096Z,25.00
2017-07-11T17:11:16.565Z,24.40
2017-07-11T17:13:45.393Z,24.30
2017-07-11T17:16:13.832Z,24.30
2017-07-11T17:18:42.740Z,24.20
2017-07-11T17:21:11.167Z,24.00
2017-07-11T17:23:39.596Z,24.00
2017-07-11T17:26:08.137Z,23.70
2017-07-11T17:28:36.801Z,23.70
2017-07-11T17:31:05.235Z,23.60
2017-07-11T17:33:34.469Z,23.50
2017-07-11T17:36:03.712Z,23.40
2017-07-11T17:38:32.168Z,23.50
2017-07-11T17:41:00.662Z,23.40
2017-07-11T17:43:29.133Z,23.30
2017-07-11T17:45:57.596Z,23.30
2017-07-11T21:40:23.614Z,16.00
2017-07-11T21:42:52.054Z,15.90
2017-07-11T21:45:20.570Z,15.80
2017-07-11T21:47:49.030Z,15.70
2017-07-11T21:50:17.443Z,15.70
2017-07-11T21:52:45.922Z,15.70
2017-07-11T21:55:15.120Z,15.50
2017-07-11T21:57:43.553Z,15.50
2017-07-11T22:00:12.586Z,15.50
2017-07-11T22:02:41.809Z,15.50
2017-07-11T22:05:10.267Z,15.40
2017-07-11T22:07:38.694Z,15.30
2017-07-11T22:10:07.179Z,15.20
2017-07-11T22:12:35.661Z,15.10
2017-07-11T22:15:04.501Z,15.10
2017-07-11T22:17:33.767Z,15.30
2017-07-11T22:20:02.278Z,15.60
2017-07-11T22:22:31.746Z,15.60
2017-07-11T22:25:00.183Z,15.60
2017-07-11T22:27:28.659Z,15.50
2017-07-11T22:29:58.231Z,15.40
2017-07-11T22:32:26.684Z,15.20
2017-07-11T22:34:55.152Z,15.20
2017-07-11T22:37:23.593Z,15.10
2017-07-11T22:39:52.049Z,15.00
2017-07-11T22:42:20.547Z,15.10
2017-07-11T22:44:48.979Z,15.00
2017-07-11T22:47:17.416Z,15.10
2017-07-11T22:49:45.920Z,15.10
2017-07-11T22:52:14.368Z,15.20
2017-07-11T22:54:42.792Z,15.20
2017-07-11T22:57:11.265Z,15.30
2017-07-11T22:59:39.751Z,15.30
2017-07-11T23:02:08.170Z,15.40
2017-07-11T23:04:36.628Z,15.30
2017-07-11T23:07:05.878Z,15.30
2017-07-11T23:09:35.088Z,15.30
2017-07-11T23:12:03.513Z,15.30
2017-07-11T23:14:31.988Z,15.40
2017-07-11T23:17:00.426Z,15.40
2017-07-11T23:19:28.879Z,15.40
2017-07-11T23:21:57.403Z,15.40
2017-07-11T23:24:25.844Z,15.50
2017-07-11T23:26:55.466Z,15.60
2017-07-11T23:29:23.896Z,15.70
2017-07-11T23:31:52.337Z,15.70
2017-07-11T23:34:20.806Z,15.80
2017-07-11T23:36:49.237Z,15.80
2017-07-11T23:39:17.662Z,15.90
2017-07-11T23:41:46.136Z,15.90
2017-07-11T23:44:14.577Z,15.90
2017-07-11T23:46:43.000Z,15.80
2017-07-11T23:49:11.475Z,15.80
2017-07-11T23:51:40.289Z,15.80
2017-07-11T23:54:09.509Z,15.80
2017-07-11T23:56:37.952Z,15.70
2017-07-11T23:59:06.374Z,17.20
